Für Piloten

Informationen für Piloten zum Flugplatz Borken-Hoxfeld
Hier findest Du alle relevanten Informationen, die Du als Pilot benötigst, um Borken-Hoxfeld anzufliegen.

Flugplatz: Borken-Hoxfeld ICAO-Code: EDLY
Borken-Hoxfeld Info: 122,930 Mhz
GAFOR Gebiet: 32
Platzrunde: Motorflug; -> Südplatzrunde; Segelflug; -> Nordplatzrunde;
Landegebühr: z.Zt. 5,00 Euro
Platzhöhe: 48m üMSL
Pisten: 12/30 – 740 m x 30 m, GRAS
Betriebszeiten: PPR (in den Sommermonaten Mittagspause beachten)

 

Wetterforecast:

Available data for EDDL from the past 2 hours
DUESSELDORF
Metar
EDDL 250650Z 03003KT 4500 -SN SCT005 BKN012 01/M01 Q1000 R05L/290295 R05R/290295 TEMPO SN BKN008

06:50 UTC

Wind: 30° 3kt

Visibility: 4500 m

Sky: SCT 500 ft

Temp: 1 deg C / 33.8 deg F

Dewpoint: -1 deg C / 30.2 deg F

Pressure: 1000 hPa

TAF
TAF EDDL 250500Z 2506/2612 VRB03KT 9999 BKN020 TEMPO 2506/2509 4500 -SN BKN010 BECMG 2510/2513 32005KT BECMG 2516/2519 22007KT PROB30 TEMPO 2520/2523 4500 -SN BKN010 BECMG 2520/2523 24012KT TEMPO 2523/2606 28015G25KT 4500 SHRASN BKN007TCU PROB30 TEMPO 2606/2609 27015G25KT SHRA BKN009TCU

Alle obigen Informationen ersetzen nicht die vorgeschriebene, persönliche Flugvorbereitung.